sensor_id;sensor_type;location;lat;lon;timestamp;temperature;humidity
83841;DHT22;73868;52.172;10.668;2023-12-20T00:00:05;6.80;96.60
83841;DHT22;73868;52.172;10.668;2023-12-20T00:02:31;6.80;96.70
83841;DHT22;73868;52.172;10.668;2023-12-20T00:04:57;6.80;96.90
83841;DHT22;73868;52.172;10.668;2023-12-20T00:07:22;6.80;96.50
83841;DHT22;73868;52.172;10.668;2023-12-20T00:09:49;6.80;97.20
83841;DHT22;73868;52.172;10.668;2023-12-20T00:12:14;6.80;97.00
83841;DHT22;73868;52.172;10.668;2023-12-20T00:14:40;6.80;97.40
83841;DHT22;73868;52.172;10.668;2023-12-20T00:17:05;6.80;97.30
83841;DHT22;73868;52.172;10.668;2023-12-20T00:19:31;6.70;97.20
83841;DHT22;73868;52.172;10.668;2023-12-20T00:21:56;6.80;97.30
83841;DHT22;73868;52.172;10.668;2023-12-20T00:24:22;6.80;97.30
83841;DHT22;73868;52.172;10.668;2023-12-20T00:26:48;6.80;97.70
83841;DHT22;73868;52.172;10.668;2023-12-20T00:29:14;6.80;97.60
83841;DHT22;73868;52.172;10.668;2023-12-20T00:31:40;6.70;97.50
83841;DHT22;73868;52.172;10.668;2023-12-20T00:34:05;6.70;97.90
83841;DHT22;73868;52.172;10.668;2023-12-20T00:36:31;6.70;98.20
83841;DHT22;73868;52.172;10.668;2023-12-20T00:38:56;6.80;97.80
83841;DHT22;73868;52.172;10.668;2023-12-20T00:41:22;6.80;97.60
83841;DHT22;73868;52.172;10.668;2023-12-20T00:43:48;6.70;97.20
83841;DHT22;73868;52.172;10.668;2023-12-20T00:46:14;6.70;96.90
83841;DHT22;73868;52.172;10.668;2023-12-20T00:48:39;6.80;96.70
83841;DHT22;73868;52.172;10.668;2023-12-20T00:51:07;6.80;96.90
83841;DHT22;73868;52.172;10.668;2023-12-20T00:53:33;6.90;96.60
83841;DHT22;73868;52.172;10.668;2023-12-20T00:55:59;6.90;96.30
83841;DHT22;73868;52.172;10.668;2023-12-20T00:58:24;6.90;96.00
83841;DHT22;73868;52.172;10.668;2023-12-20T01:00:50;7.00;96.20
83841;DHT22;73868;52.172;10.668;2023-12-20T01:03:15;7.00;95.90
83841;DHT22;73868;52.172;10.668;2023-12-20T01:05:41;7.00;96.00
83841;DHT22;73868;52.172;10.668;2023-12-20T01:08:06;6.90;96.70
83841;DHT22;73868;52.172;10.668;2023-12-20T01:10:32;7.00;96.30
83841;DHT22;73868;52.172;10.668;2023-12-20T01:12:57;6.90;96.30
83841;DHT22;73868;52.172;10.668;2023-12-20T01:15:23;7.00;96.00
83841;DHT22;73868;52.172;10.668;2023-12-20T01:17:49;6.90;95.80
83841;DHT22;73868;52.172;10.668;2023-12-20T01:20:14;7.00;95.90
83841;DHT22;73868;52.172;10.668;2023-12-20T01:22:40;7.00;95.80
83841;DHT22;73868;52.172;10.668;2023-12-20T01:25:08;7.00;96.10
83841;DHT22;73868;52.172;10.668;2023-12-20T01:27:33;7.00;95.80
83841;DHT22;73868;52.172;10.668;2023-12-20T01:29:59;7.00;96.10
83841;DHT22;73868;52.172;10.668;2023-12-20T01:32:24;7.00;95.70
83841;DHT22;73868;52.172;10.668;2023-12-20T01:34:50;6.90;95.70
83841;DHT22;73868;52.172;10.668;2023-12-20T01:37:16;6.90;95.80
83841;DHT22;73868;52.172;10.668;2023-12-20T01:39:41;6.80;96.40
83841;DHT22;73868;52.172;10.668;2023-12-20T01:42:07;6.90;95.90
83841;DHT22;73868;52.172;10.668;2023-12-20T01:44:32;6.90;95.50
83841;DHT22;73868;52.172;10.668;2023-12-20T01:46:58;6.80;95.70
83841;DHT22;73868;52.172;10.668;2023-12-20T01:49:24;6.80;95.40
83841;DHT22;73868;52.172;10.668;2023-12-20T01:51:50;6.80;94.70
83841;DHT22;73868;52.172;10.668;2023-12-20T01:54:16;6.80;94.60
83841;DHT22;73868;52.172;10.668;2023-12-20T01:56:42;6.70;94.60
83841;DHT22;73868;52.172;10.668;2023-12-20T01:59:08;6.70;94.50
83841;DHT22;73868;52.172;10.668;2023-12-20T02:01:35;6.70;94.50
83841;DHT22;73868;52.172;10.668;2023-12-20T02:04:01;6.70;94.50
83841;DHT22;73868;52.172;10.668;2023-12-20T02:06:29;6.70;94.70
83841;DHT22;73868;52.172;10.668;2023-12-20T02:08:57;6.60;94.90
83841;DHT22;73868;52.172;10.668;2023-12-20T02:11:23;6.60;95.00
83841;DHT22;73868;52.172;10.668;2023-12-20T02:13:50;6.60;94.90
83841;DHT22;73868;52.172;10.668;2023-12-20T02:16:16;6.60;94.90
83841;DHT22;73868;52.172;10.668;2023-12-20T02:18:42;6.60;95.30
83841;DHT22;73868;52.172;10.668;2023-12-20T02:21:09;6.60;95.30
83841;DHT22;73868;52.172;10.668;2023-12-20T02:23:35;6.60;95.20
83841;DHT22;73868;52.172;10.668;2023-12-20T02:26:01;6.60;95.20
83841;DHT22;73868;52.172;10.668;2023-12-20T02:28:27;6.40;95.30
83841;DHT22;73868;52.172;10.668;2023-12-20T02:30:52;6.50;95.30
83841;DHT22;73868;52.172;10.668;2023-12-20T02:33:18;6.50;95.10
83841;DHT22;73868;52.172;10.668;2023-12-20T02:35:44;6.40;95.30
83841;DHT22;73868;52.172;10.668;2023-12-20T02:38:09;6.40;95.30
83841;DHT22;73868;52.172;10.668;2023-12-20T02:40:35;6.30;95.40
83841;DHT22;73868;52.172;10.668;2023-12-20T02:43:00;6.30;95.40
83841;DHT22;73868;52.172;10.668;2023-12-20T02:45:27;6.20;95.40
83841;DHT22;73868;52.172;10.668;2023-12-20T02:47:52;6.10;95.70
83841;DHT22;73868;52.172;10.668;2023-12-20T02:50:18;6.30;95.70
83841;DHT22;73868;52.172;10.668;2023-12-20T02:52:45;6.20;95.40
83841;DHT22;73868;52.172;10.668;2023-12-20T02:55:11;6.10;95.00
83841;DHT22;73868;52.172;10.668;2023-12-20T02:57:36;6.30;95.20
83841;DHT22;73868;52.172;10.668;2023-12-20T03:00:10;6.20;94.90
83841;DHT22;73868;52.172;10.668;2023-12-20T03:02:36;6.10;94.80
83841;DHT22;73868;52.172;10.668;2023-12-20T03:05:02;5.90;95.50
83841;DHT22;73868;52.172;10.668;2023-12-20T03:07:28;5.90;95.50
83841;DHT22;73868;52.172;10.668;2023-12-20T03:09:53;5.90;95.60
83841;DHT22;73868;52.172;10.668;2023-12-20T03:12:19;5.90;95.50
83841;DHT22;73868;52.172;10.668;2023-12-20T03:14:44;5.80;95.60
83841;DHT22;73868;52.172;10.668;2023-12-20T03:17:10;5.60;95.70
83841;DHT22;73868;52.172;10.668;2023-12-20T03:19:36;5.70;95.80
83841;DHT22;73868;52.172;10.668;2023-12-20T03:22:01;5.70;95.80
83841;DHT22;73868;52.172;10.668;2023-12-20T03:24:27;5.60;95.80
83841;DHT22;73868;52.172;10.668;2023-12-20T03:26:53;5.70;95.70
83841;DHT22;73868;52.172;10.668;2023-12-20T03:29:19;5.60;95.60
83841;DHT22;73868;52.172;10.668;2023-12-20T03:31:44;5.60;95.50
83841;DHT22;73868;52.172;10.668;2023-12-20T03:34:11;5.50;95.60
83841;DHT22;73868;52.172;10.668;2023-12-20T03:36:36;5.60;95.80
83841;DHT22;73868;52.172;10.668;2023-12-20T03:39:02;5.50;95.70
83841;DHT22;73868;52.172;10.668;2023-12-20T03:41:28;5.40;95.70
83841;DHT22;73868;52.172;10.668;2023-12-20T03:43:54;5.40;95.70
83841;DHT22;73868;52.172;10.668;2023-12-20T03:46:19;5.40;95.80
83841;DHT22;73868;52.172;10.668;2023-12-20T03:48:45;5.50;95.80
83841;DHT22;73868;52.172;10.668;2023-12-20T03:51:10;5.50;95.50
83841;DHT22;73868;52.172;10.668;2023-12-20T03:53:36;5.60;95.00
83841;DHT22;73868;52.172;10.668;2023-12-20T03:56:01;5.60;94.30
83841;DHT22;73868;52.172;10.668;2023-12-20T03:58:27;5.60;94.10
83841;DHT22;73868;52.172;10.668;2023-12-20T04:00:52;5.40;94.30
83841;DHT22;73868;52.172;10.668;2023-12-20T04:03:18;5.50;94.60
83841;DHT22;73868;52.172;10.668;2023-12-20T04:05:43;5.50;94.30
83841;DHT22;73868;52.172;10.668;2023-12-20T04:08:09;5.50;94.40
83841;DHT22;73868;52.172;10.668;2023-12-20T04:10:35;5.50;94.00
83841;DHT22;73868;52.172;10.668;2023-12-20T04:13:00;5.50;94.20
83841;DHT22;73868;52.172;10.668;2023-12-20T04:15:26;5.30;93.90
83841;DHT22;73868;52.172;10.668;2023-12-20T04:17:51;5.40;93.90
83841;DHT22;73868;52.172;10.668;2023-12-20T04:20:17;5.30;93.80
83841;DHT22;73868;52.172;10.668;2023-12-20T04:22:43;5.10;93.90
83841;DHT22;73868;52.172;10.668;2023-12-20T04:25:08;5.10;94.50
83841;DHT22;73868;52.172;10.668;2023-12-20T04:27:35;5.00;94.20
83841;DHT22;73868;52.172;10.668;2023-12-20T04:30:00;5.10;94.10
83841;DHT22;73868;52.172;10.668;2023-12-20T04:32:26;5.10;93.60
83841;DHT22;73868;52.172;10.668;2023-12-20T04:34:51;5.20;93.50
83841;DHT22;73868;52.172;10.668;2023-12-20T04:37:17;5.00;93.60
83841;DHT22;73868;52.172;10.668;2023-12-20T04:39:42;5.00;93.50
83841;DHT22;73868;52.172;10.668;2023-12-20T04:42:08;5.10;93.80
83841;DHT22;73868;52.172;10.668;2023-12-20T04:44:33;5.10;93.40
83841;DHT22;73868;52.172;10.668;2023-12-20T04:46:59;5.10;93.10
83841;DHT22;73868;52.172;10.668;2023-12-20T04:49:25;5.10;93.40
83841;DHT22;73868;52.172;10.668;2023-12-20T04:51:51;5.20;92.80
83841;DHT22;73868;52.172;10.668;2023-12-20T04:54:16;5.30;92.80
83841;DHT22;73868;52.172;10.668;2023-12-20T04:56:42;5.20;92.80
83841;DHT22;73868;52.172;10.668;2023-12-20T04:59:07;5.30;92.60
83841;DHT22;73868;52.172;10.668;2023-12-20T05:01:33;5.30;92.90
83841;DHT22;73868;52.172;10.668;2023-12-20T05:03:59;5.40;92.80
83841;DHT22;73868;52.172;10.668;2023-12-20T05:06:24;5.40;92.50
83841;DHT22;73868;52.172;10.668;2023-12-20T05:08:50;5.50;91.80
83841;DHT22;73868;52.172;10.668;2023-12-20T05:11:15;5.60;91.00
83841;DHT22;73868;52.172;10.668;2023-12-20T05:13:41;5.80;91.40
83841;DHT22;73868;52.172;10.668;2023-12-20T05:16:07;5.80;90.80
83841;DHT22;73868;52.172;10.668;2023-12-20T05:18:34;5.90;90.50
83841;DHT22;73868;52.172;10.668;2023-12-20T05:20:59;5.90;89.80
83841;DHT22;73868;52.172;10.668;2023-12-20T05:23:25;5.90;90.00
83841;DHT22;73868;52.172;10.668;2023-12-20T05:25:51;5.90;90.10
83841;DHT22;73868;52.172;10.668;2023-12-20T05:28:16;5.90;90.10
83841;DHT22;73868;52.172;10.668;2023-12-20T05:30:42;6.00;90.20
83841;DHT22;73868;52.172;10.668;2023-12-20T05:33:08;5.90;89.90
83841;DHT22;73868;52.172;10.668;2023-12-20T05:35:34;6.00;89.60
83841;DHT22;73868;52.172;10.668;2023-12-20T05:38:00;5.90;88.80
83841;DHT22;73868;52.172;10.668;2023-12-20T05:40:25;6.10;88.90
83841;DHT22;73868;52.172;10.668;2023-12-20T05:42:51;6.20;88.30
83841;DHT22;73868;52.172;10.668;2023-12-20T05:45:17;6.10;88.60
83841;DHT22;73868;52.172;10.668;2023-12-20T05:47:42;6.20;89.20
83841;DHT22;73868;52.172;10.668;2023-12-20T05:50:08;6.30;88.60
83841;DHT22;73868;52.172;10.668;2023-12-20T05:52:34;6.20;88.70
83841;DHT22;73868;52.172;10.668;2023-12-20T05:54:59;6.20;88.10
83841;DHT22;73868;52.172;10.668;2023-12-20T05:57:27;6.30;88.20
83841;DHT22;73868;52.172;10.668;2023-12-20T05:59:52;6.20;88.60
83841;DHT22;73868;52.172;10.668;2023-12-20T06:02:18;6.30;88.30
83841;DHT22;73868;52.172;10.668;2023-12-20T06:04:43;6.30;88.60
83841;DHT22;73868;52.172;10.668;2023-12-20T06:07:11;6.30;88.80
83841;DHT22;73868;52.172;10.668;2023-12-20T06:09:37;6.30;88.60
83841;DHT22;73868;52.172;10.668;2023-12-20T06:12:03;6.20;88.10
83841;DHT22;73868;52.172;10.668;2023-12-20T06:14:28;6.40;88.10
83841;DHT22;73868;52.172;10.668;2023-12-20T06:16:56;6.40;88.20
83841;DHT22;73868;52.172;10.668;2023-12-20T06:19:21;6.40;87.70
83841;DHT22;73868;52.172;10.668;2023-12-20T06:21:47;6.50;88.10
83841;DHT22;73868;52.172;10.668;2023-12-20T06:24:13;6.50;88.30
83841;DHT22;73868;52.172;10.668;2023-12-20T06:26:38;6.50;88.60
83841;DHT22;73868;52.172;10.668;2023-12-20T06:29:04;6.40;88.70
83841;DHT22;73868;52.172;10.668;2023-12-20T06:31:29;6.40;88.20
83841;DHT22;73868;52.172;10.668;2023-12-20T06:33:55;6.50;88.60
83841;DHT22;73868;52.172;10.668;2023-12-20T06:36:23;6.50;88.80
83841;DHT22;73868;52.172;10.668;2023-12-20T06:38:50;6.50;88.50
83841;DHT22;73868;52.172;10.668;2023-12-20T06:41:15;6.50;88.70
83841;DHT22;73868;52.172;10.668;2023-12-20T06:43:42;6.50;88.40
83841;DHT22;73868;52.172;10.668;2023-12-20T06:46:07;6.50;88.30
83841;DHT22;73868;52.172;10.668;2023-12-20T06:48:34;6.60;88.40
83841;DHT22;73868;52.172;10.668;2023-12-20T06:51:00;6.60;88.90
83841;DHT22;73868;52.172;10.668;2023-12-20T06:53:27;6.50;89.00
83841;DHT22;73868;52.172;10.668;2023-12-20T06:55:53;6.50;89.50
83841;DHT22;73868;52.172;10.668;2023-12-20T06:58:18;6.40;89.40
83841;DHT22;73868;52.172;10.668;2023-12-20T07:00:44;6.40;88.70
83841;DHT22;73868;52.172;10.668;2023-12-20T07:03:09;6.40;89.30
83841;DHT22;73868;52.172;10.668;2023-12-20T07:05:35;6.30;89.80
83841;DHT22;73868;52.172;10.668;2023-12-20T07:08:01;6.20;90.30
83841;DHT22;73868;52.172;10.668;2023-12-20T07:10:26;6.30;90.60
83841;DHT22;73868;52.172;10.668;2023-12-20T07:12:52;6.30;90.50
83841;DHT22;73868;52.172;10.668;2023-12-20T07:15:21;6.30;90.50
83841;DHT22;73868;52.172;10.668;2023-12-20T07:17:46;6.30;90.50
83841;DHT22;73868;52.172;10.668;2023-12-20T07:20:12;6.30;90.50
83841;DHT22;73868;52.172;10.668;2023-12-20T07:22:37;6.40;90.20
83841;DHT22;73868;52.172;10.668;2023-12-20T07:25:03;6.40;90.10
83841;DHT22;73868;52.172;10.668;2023-12-20T07:27:29;6.40;89.80
83841;DHT22;73868;52.172;10.668;2023-12-20T07:29:54;6.50;89.70
83841;DHT22;73868;52.172;10.668;2023-12-20T07:32:20;6.50;89.40
83841;DHT22;73868;52.172;10.668;2023-12-20T07:34:46;6.50;89.30
83841;DHT22;73868;52.172;10.668;2023-12-20T07:37:11;6.50;89.00
83841;DHT22;73868;52.172;10.668;2023-12-20T07:39:40;6.40;88.90
83841;DHT22;73868;52.172;10.668;2023-12-20T07:42:07;6.40;89.20
83841;DHT22;73868;52.172;10.668;2023-12-20T07:44:33;6.30;89.70
83841;DHT22;73868;52.172;10.668;2023-12-20T07:46:59;6.20;89.50
83841;DHT22;73868;52.172;10.668;2023-12-20T07:49:24;6.10;90.00
83841;DHT22;73868;52.172;10.668;2023-12-20T07:51:50;6.20;89.60
83841;DHT22;73868;52.172;10.668;2023-12-20T07:54:16;6.20;89.90
83841;DHT22;73868;52.172;10.668;2023-12-20T07:56:42;6.20;89.60
83841;DHT22;73868;52.172;10.668;2023-12-20T07:59:07;6.20;89.90
83841;DHT22;73868;52.172;10.668;2023-12-20T08:01:33;6.20;89.80
83841;DHT22;73868;52.172;10.668;2023-12-20T08:03:58;6.20;89.90
83841;DHT22;73868;52.172;10.668;2023-12-20T08:06:24;6.30;89.80
83841;DHT22;73868;52.172;10.668;2023-12-20T08:08:49;6.20;89.80
83841;DHT22;73868;52.172;10.668;2023-12-20T08:11:15;6.20;90.00
83841;DHT22;73868;52.172;10.668;2023-12-20T08:13:41;6.10;89.50
83841;DHT22;73868;52.172;10.668;2023-12-20T08:16:06;6.20;89.70
83841;DHT22;73868;52.172;10.668;2023-12-20T08:18:32;6.20;89.20
83841;DHT22;73868;52.172;10.668;2023-12-20T08:20:57;6.20;88.80
83841;DHT22;73868;52.172;10.668;2023-12-20T08:23:23;6.30;88.80
83841;DHT22;73868;52.172;10.668;2023-12-20T08:25:49;6.40;88.40
83841;DHT22;73868;52.172;10.668;2023-12-20T08:28:14;6.50;88.20
83841;DHT22;73868;52.172;10.668;2023-12-20T08:30:40;6.60;87.90
83841;DHT22;73868;52.172;10.668;2023-12-20T08:33:06;6.70;87.40
83841;DHT22;73868;52.172;10.668;2023-12-20T08:35:36;6.70;87.70
83841;DHT22;73868;52.172;10.668;2023-12-20T08:38:02;6.60;87.00
83841;DHT22;73868;52.172;10.668;2023-12-20T08:40:29;6.70;86.50
83841;DHT22;73868;52.172;10.668;2023-12-20T08:42:55;6.80;86.60
83841;DHT22;73868;52.172;10.668;2023-12-20T08:45:20;6.90;86.70
83841;DHT22;73868;52.172;10.668;2023-12-20T08:47:46;6.90;86.60
83841;DHT22;73868;52.172;10.668;2023-12-20T08:50:12;6.90;86.40
83841;DHT22;73868;52.172;10.668;2023-12-20T08:52:37;7.00;86.10
83841;DHT22;73868;52.172;10.668;2023-12-20T08:55:03;6.90;86.30
83841;DHT22;73868;52.172;10.668;2023-12-20T08:57:29;6.90;86.20
83841;DHT22;73868;52.172;10.668;2023-12-20T08:59:55;6.90;86.80
83841;DHT22;73868;52.172;10.668;2023-12-20T09:02:20;6.90;87.60
83841;DHT22;73868;52.172;10.668;2023-12-20T09:04:46;6.90;87.30
83841;DHT22;73868;52.172;10.668;2023-12-20T09:07:41;7.00;86.50
83841;DHT22;73868;52.172;10.668;2023-12-20T09:10:07;7.10;86.40
83841;DHT22;73868;52.172;10.668;2023-12-20T09:12:32;7.10;85.50
83841;DHT22;73868;52.172;10.668;2023-12-20T09:14:58;7.10;85.80
83841;DHT22;73868;52.172;10.668;2023-12-20T09:17:23;7.10;85.50
83841;DHT22;73868;52.172;10.668;2023-12-20T09:19:49;7.00;85.50
83841;DHT22;73868;52.172;10.668;2023-12-20T09:22:15;7.10;85.30
83841;DHT22;73868;52.172;10.668;2023-12-20T09:24:40;7.00;86.10
83841;DHT22;73868;52.172;10.668;2023-12-20T09:27:06;7.00;86.60
83841;DHT22;73868;52.172;10.668;2023-12-20T09:29:32;7.00;87.00
83841;DHT22;73868;52.172;10.668;2023-12-20T09:31:57;6.90;87.10
83841;DHT22;73868;52.172;10.668;2023-12-20T09:34:23;7.00;87.10
83841;DHT22;73868;52.172;10.668;2023-12-20T09:36:49;7.10;86.90
83841;DHT22;73868;52.172;10.668;2023-12-20T09:39:16;7.00;86.90
83841;DHT22;73868;52.172;10.668;2023-12-20T09:41:45;7.00;86.80
83841;DHT22;73868;52.172;10.668;2023-12-20T09:44:16;7.00;86.80
83841;DHT22;73868;52.172;10.668;2023-12-20T09:46:45;7.10;86.50
83841;DHT22;73868;52.172;10.668;2023-12-20T09:49:12;7.10;86.90
83841;DHT22;73868;52.172;10.668;2023-12-20T09:51:39;7.00;86.70
83841;DHT22;73868;52.172;10.668;2023-12-20T09:54:06;7.00;86.90
83841;DHT22;73868;52.172;10.668;2023-12-20T09:56:31;7.10;86.60
83841;DHT22;73868;52.172;10.668;2023-12-20T09:58:57;7.10;86.80
83841;DHT22;73868;52.172;10.668;2023-12-20T10:01:23;7.20;86.90
83841;DHT22;73868;52.172;10.668;2023-12-20T10:03:51;7.30;86.80
83841;DHT22;73868;52.172;10.668;2023-12-20T10:06:18;7.40;86.30
83841;DHT22;73868;52.172;10.668;2023-12-20T10:08:43;7.20;86.30
83841;DHT22;73868;52.172;10.668;2023-12-20T10:11:09;7.20;86.30
83841;DHT22;73868;52.172;10.668;2023-12-20T10:13:39;7.20;86.20
83841;DHT22;73868;52.172;10.668;2023-12-20T10:16:06;7.20;85.70
83841;DHT22;73868;52.172;10.668;2023-12-20T10:18:32;7.30;86.10
83841;DHT22;73868;52.172;10.668;2023-12-20T10:20:58;7.30;86.00
83841;DHT22;73868;52.172;10.668;2023-12-20T10:23:24;7.30;86.10
83841;DHT22;73868;52.172;10.668;2023-12-20T10:25:59;7.30;85.70
83841;DHT22;73868;52.172;10.668;2023-12-20T10:28:24;7.30;85.60
83841;DHT22;73868;52.172;10.668;2023-12-20T10:30:54;7.30;85.50
83841;DHT22;73868;52.172;10.668;2023-12-20T10:33:26;7.30;85.70
83841;DHT22;73868;52.172;10.668;2023-12-20T10:35:52;7.40;85.10
83841;DHT22;73868;52.172;10.668;2023-12-20T10:38:18;7.40;84.90
83841;DHT22;73868;52.172;10.668;2023-12-20T10:40:45;7.50;85.00
83841;DHT22;73868;52.172;10.668;2023-12-20T10:43:11;7.40;85.00
83841;DHT22;73868;52.172;10.668;2023-12-20T10:45:37;7.40;85.00
83841;DHT22;73868;52.172;10.668;2023-12-20T10:48:03;7.30;85.30
83841;DHT22;73868;52.172;10.668;2023-12-20T10:50:29;7.40;84.70
83841;DHT22;73868;52.172;10.668;2023-12-20T10:52:56;7.50;84.60
83841;DHT22;73868;52.172;10.668;2023-12-20T10:55:23;7.40;84.70
83841;DHT22;73868;52.172;10.668;2023-12-20T10:58:00;7.40;85.00
83841;DHT22;73868;52.172;10.668;2023-12-20T11:00:26;7.30;85.00
83841;DHT22;73868;52.172;10.668;2023-12-20T11:02:51;7.40;85.10
83841;DHT22;73868;52.172;10.668;2023-12-20T11:05:36;7.40;85.70
83841;DHT22;73868;52.172;10.668;2023-12-20T11:08:11;7.30;85.90
83841;DHT22;73868;52.172;10.668;2023-12-20T11:10:58;7.30;86.10
83841;DHT22;73868;52.172;10.668;2023-12-20T11:13:55;7.20;86.40
83841;DHT22;73868;52.172;10.668;2023-12-20T11:16:22;7.20;86.60
83841;DHT22;73868;52.172;10.668;2023-12-20T11:18:50;7.20;86.40
83841;DHT22;73868;52.172;10.668;2023-12-20T11:21:16;7.30;86.40
83841;DHT22;73868;52.172;10.668;2023-12-20T11:23:42;7.20;86.10
83841;DHT22;73868;52.172;10.668;2023-12-20T11:26:08;7.20;86.20
83841;DHT22;73868;52.172;10.668;2023-12-20T11:28:33;7.30;86.10
83841;DHT22;73868;52.172;10.668;2023-12-20T11:31:01;7.30;86.40
83841;DHT22;73868;52.172;10.668;2023-12-20T11:33:38;7.30;86.50
83841;DHT22;73868;52.172;10.668;2023-12-20T11:36:13;7.30;85.90
83841;DHT22;73868;52.172;10.668;2023-12-20T11:38:54;7.40;85.90
83841;DHT22;73868;52.172;10.668;2023-12-20T11:41:25;7.50;86.10
83841;DHT22;73868;52.172;10.668;2023-12-20T11:43:54;7.50;85.40
83841;DHT22;73868;52.172;10.668;2023-12-20T11:46:20;7.60;85.30
83841;DHT22;73868;52.172;10.668;2023-12-20T11:48:46;7.50;85.80
83841;DHT22;73868;52.172;10.668;2023-12-20T11:51:13;7.50;86.00
83841;DHT22;73868;52.172;10.668;2023-12-20T11:53:40;7.40;86.50
83841;DHT22;73868;52.172;10.668;2023-12-20T11:56:06;7.40;87.00
83841;DHT22;73868;52.172;10.668;2023-12-20T11:58:33;7.40;87.40
83841;DHT22;73868;52.172;10.668;2023-12-20T12:00:59;7.50;87.30
83841;DHT22;73868;52.172;10.668;2023-12-20T12:03:24;7.50;87.30
83841;DHT22;73868;52.172;10.668;2023-12-20T12:05:50;7.50;87.00
83841;DHT22;73868;52.172;10.668;2023-12-20T12:08:17;7.40;87.20
83841;DHT22;73868;52.172;10.668;2023-12-20T12:10:45;7.40;87.60
83841;DHT22;73868;52.172;10.668;2023-12-20T12:13:11;7.30;88.20
83841;DHT22;73868;52.172;10.668;2023-12-20T12:15:37;7.30;88.80
83841;DHT22;73868;52.172;10.668;2023-12-20T12:18:03;7.30;89.10
83841;DHT22;73868;52.172;10.668;2023-12-20T12:20:29;7.20;89.50
83841;DHT22;73868;52.172;10.668;2023-12-20T12:23:02;7.10;90.40
83841;DHT22;73868;52.172;10.668;2023-12-20T12:25:32;7.10;91.10
83841;DHT22;73868;52.172;10.668;2023-12-20T12:27:58;7.10;91.20
83841;DHT22;73868;52.172;10.668;2023-12-20T12:30:24;7.10;90.80
83841;DHT22;73868;52.172;10.668;2023-12-20T12:32:55;7.10;91.30
83841;DHT22;73868;52.172;10.668;2023-12-20T12:35:21;7.10;92.30
83841;DHT22;73868;52.172;10.668;2023-12-20T12:37:47;7.00;92.70
83841;DHT22;73868;52.172;10.668;2023-12-20T12:40:16;7.00;92.10
83841;DHT22;73868;52.172;10.668;2023-12-20T12:42:43;6.80;91.90
83841;DHT22;73868;52.172;10.668;2023-12-20T12:45:10;6.80;91.90
83841;DHT22;73868;52.172;10.668;2023-12-20T12:47:40;6.60;91.70
83841;DHT22;73868;52.172;10.668;2023-12-20T12:50:05;6.70;92.10
83841;DHT22;73868;52.172;10.668;2023-12-20T12:52:31;6.80;92.10
83841;DHT22;73868;52.172;10.668;2023-12-20T12:54:57;6.70;90.10
83841;DHT22;73868;52.172;10.668;2023-12-20T12:57:22;6.70;90.60
83841;DHT22;73868;52.172;10.668;2023-12-20T12:59:49;6.50;90.10
83841;DHT22;73868;52.172;10.668;2023-12-20T13:02:15;6.50;89.70
83841;DHT22;73868;52.172;10.668;2023-12-20T13:04:41;6.40;89.60
83841;DHT22;73868;52.172;10.668;2023-12-20T13:07:07;6.40;89.10
83841;DHT22;73868;52.172;10.668;2023-12-20T13:09:36;6.30;88.20
83841;DHT22;73868;52.172;10.668;2023-12-20T13:12:01;6.30;88.10
83841;DHT22;73868;52.172;10.668;2023-12-20T13:14:29;6.30;88.90
83841;DHT22;73868;52.172;10.668;2023-12-20T13:16:55;6.30;89.50
83841;DHT22;73868;52.172;10.668;2023-12-20T13:19:21;6.30;89.10
83841;DHT22;73868;52.172;10.668;2023-12-20T13:21:46;6.20;88.90
83841;DHT22;73868;52.172;10.668;2023-12-20T13:24:12;6.10;89.10
83841;DHT22;73868;52.172;10.668;2023-12-20T13:26:37;6.10;89.50
83841;DHT22;73868;52.172;10.668;2023-12-20T13:29:03;6.20;89.30
83841;DHT22;73868;52.172;10.668;2023-12-20T13:31:29;6.20;88.90
83841;DHT22;73868;52.172;10.668;2023-12-20T13:33:54;6.20;87.50
83841;DHT22;73868;52.172;10.668;2023-12-20T13:36:20;6.20;87.90
83841;DHT22;73868;52.172;10.668;2023-12-20T13:38:46;6.10;88.90
83841;DHT22;73868;52.172;10.668;2023-12-20T13:41:11;6.00;87.50
83841;DHT22;73868;52.172;10.668;2023-12-20T13:43:37;6.10;86.80
83841;DHT22;73868;52.172;10.668;2023-12-20T13:46:03;6.10;86.40
83841;DHT22;73868;52.172;10.668;2023-12-20T13:48:29;6.10;86.00
83841;DHT22;73868;52.172;10.668;2023-12-20T13:50:54;6.20;86.10
83841;DHT22;73868;52.172;10.668;2023-12-20T13:53:20;6.20;86.90
83841;DHT22;73868;52.172;10.668;2023-12-20T13:55:46;6.20;85.70
83841;DHT22;73868;52.172;10.668;2023-12-20T13:58:11;6.20;86.60
83841;DHT22;73868;52.172;10.668;2023-12-20T14:00:37;6.10;85.90
83841;DHT22;73868;52.172;10.668;2023-12-20T14:03:06;6.10;86.20
83841;DHT22;73868;52.172;10.668;2023-12-20T14:05:32;6.30;86.30
83841;DHT22;73868;52.172;10.668;2023-12-20T14:07:58;6.30;86.60
83841;DHT22;73868;52.172;10.668;2023-12-20T14:10:24;6.20;86.40
83841;DHT22;73868;52.172;10.668;2023-12-20T14:12:54;6.20;86.00
83841;DHT22;73868;52.172;10.668;2023-12-20T14:15:19;6.20;87.40
83841;DHT22;73868;52.172;10.668;2023-12-20T14:17:45;6.30;86.10
83841;DHT22;73868;52.172;10.668;2023-12-20T14:20:11;6.20;86.70
83841;DHT22;73868;52.172;10.668;2023-12-20T14:22:41;6.20;86.90
83841;DHT22;73868;52.172;10.668;2023-12-20T14:25:11;6.20;88.30
83841;DHT22;73868;52.172;10.668;2023-12-20T14:27:38;6.30;87.50
83841;DHT22;73868;52.172;10.668;2023-12-20T14:30:05;6.20;86.80
83841;DHT22;73868;52.172;10.668;2023-12-20T14:32:31;6.20;87.50
83841;DHT22;73868;52.172;10.668;2023-12-20T14:34:57;6.20;86.80
83841;DHT22;73868;52.172;10.668;2023-12-20T14:37:22;6.20;87.10
83841;DHT22;73868;52.172;10.668;2023-12-20T14:39:48;6.20;87.20
83841;DHT22;73868;52.172;10.668;2023-12-20T14:42:13;6.10;88.00
83841;DHT22;73868;52.172;10.668;2023-12-20T14:44:42;6.10;87.10
83841;DHT22;73868;52.172;10.668;2023-12-20T14:47:08;6.20;87.40
83841;DHT22;73868;52.172;10.668;2023-12-20T14:49:33;6.20;87.70
83841;DHT22;73868;52.172;10.668;2023-12-20T14:51:59;6.30;87.10
83841;DHT22;73868;52.172;10.668;2023-12-20T14:54:25;6.20;87.70
83841;DHT22;73868;52.172;10.668;2023-12-20T14:56:51;6.30;87.00
83841;DHT22;73868;52.172;10.668;2023-12-20T14:59:16;6.40;87.30
83841;DHT22;73868;52.172;10.668;2023-12-20T15:01:43;6.40;86.10
83841;DHT22;73868;52.172;10.668;2023-12-20T15:04:09;6.40;85.70
83841;DHT22;73868;52.172;10.668;2023-12-20T15:06:35;6.30;86.20
83841;DHT22;73868;52.172;10.668;2023-12-20T15:09:01;6.40;85.60
83841;DHT22;73868;52.172;10.668;2023-12-20T15:11:30;6.40;85.70
83841;DHT22;73868;52.172;10.668;2023-12-20T15:13:56;6.40;86.60
83841;DHT22;73868;52.172;10.668;2023-12-20T15:16:22;6.40;86.10
83841;DHT22;73868;52.172;10.668;2023-12-20T15:18:48;6.30;86.40
83841;DHT22;73868;52.172;10.668;2023-12-20T15:21:15;6.40;85.20
83841;DHT22;73868;52.172;10.668;2023-12-20T15:23:41;6.40;85.50